sensor_id;sensor_type;location;lat;lon;timestamp;pressure;altitude;pressure_sealevel;temperature;humidity
5753;BME280;2901;42.140;24.760;2023-03-11T00:00:23;97655.72;;;12.61;100.00
5753;BME280;2901;42.140;24.760;2023-03-11T00:02:51;97653.50;;;12.52;100.00
5753;BME280;2901;42.140;24.760;2023-03-11T00:05:22;97641.84;;;12.41;100.00
5753;BME280;2901;42.140;24.760;2023-03-11T00:07:48;97652.03;;;12.46;100.00
5753;BME280;2901;42.140;24.760;2023-03-11T00:10:16;97640.31;;;12.37;100.00
5753;BME280;2901;42.140;24.760;2023-03-11T00:12:42;97645.50;;;12.37;100.00
5753;BME280;2901;42.140;24.760;2023-03-11T00:15:07;97647.16;;;12.38;100.00
5753;BME280;2901;42.140;24.760;2023-03-11T00:17:33;97632.31;;;12.42;100.00
5753;BME280;2901;42.140;24.760;2023-03-11T00:19:58;97610.19;;;12.33;100.00
5753;BME280;2901;42.140;24.760;2023-03-11T00:22:24;97609.50;;;12.48;100.00
5753;BME280;2901;42.140;24.760;2023-03-11T00:24:49;97590.66;;;12.64;100.00
5753;BME280;2901;42.140;24.760;2023-03-11T00:27:15;97600.63;;;12.73;100.00
5753;BME280;2901;42.140;24.760;2023-03-11T00:29:40;97600.50;;;12.76;100.00
5753;BME280;2901;42.140;24.760;2023-03-11T00:32:06;97584.91;;;12.76;100.00
5753;BME280;2901;42.140;24.760;2023-03-11T00:34:31;97576.78;;;12.83;100.00
5753;BME280;2901;42.140;24.760;2023-03-11T00:36:57;97559.91;;;12.92;100.00
5753;BME280;2901;42.140;24.760;2023-03-11T00:39:22;97557.94;;;12.97;100.00
5753;BME280;2901;42.140;24.760;2023-03-11T00:41:48;97563.00;;;13.00;100.00
5753;BME280;2901;42.140;24.760;2023-03-11T00:44:15;97552.06;;;12.93;100.00
5753;BME280;2901;42.140;24.760;2023-03-11T00:46:40;97548.47;;;12.96;100.00
5753;BME280;2901;42.140;24.760;2023-03-11T00:49:05;97537.94;;;12.99;100.00
5753;BME280;2901;42.140;24.760;2023-03-11T00:51:31;97529.09;;;13.03;100.00
5753;BME280;2901;42.140;24.760;2023-03-11T00:53:56;97533.22;;;13.07;100.00
5753;BME280;2901;42.140;24.760;2023-03-11T00:56:21;97533.22;;;13.07;100.00
5753;BME280;2901;42.140;24.760;2023-03-11T00:58:47;97536.03;;;13.02;100.00
5753;BME280;2901;42.140;24.760;2023-03-11T01:01:17;97532.38;;;13.07;100.00
5753;BME280;2901;42.140;24.760;2023-03-11T01:03:43;97537.31;;;13.13;100.00
5753;BME280;2901;42.140;24.760;2023-03-11T01:06:09;97523.31;;;13.15;100.00
5753;BME280;2901;42.140;24.760;2023-03-11T01:08:35;97514.78;;;13.13;100.00
5753;BME280;2901;42.140;24.760;2023-03-11T01:11:01;97508.41;;;12.83;100.00
5753;BME280;2901;42.140;24.760;2023-03-11T01:13:28;97503.66;;;12.74;100.00
5753;BME280;2901;42.140;24.760;2023-03-11T01:15:54;97499.34;;;12.73;100.00
5753;BME280;2901;42.140;24.760;2023-03-11T01:18:20;97505.91;;;12.63;100.00
5753;BME280;2901;42.140;24.760;2023-03-11T01:20:46;97487.66;;;12.45;100.00
5753;BME280;2901;42.140;24.760;2023-03-11T01:23:13;97467.94;;;12.23;100.00
5753;BME280;2901;42.140;24.760;2023-03-11T01:25:39;97492.16;;;12.23;100.00
5753;BME280;2901;42.140;24.760;2023-03-11T01:28:05;97496.22;;;12.29;100.00
5753;BME280;2901;42.140;24.760;2023-03-11T01:30:33;97485.13;;;12.25;100.00
5753;BME280;2901;42.140;24.760;2023-03-11T01:32:59;97474.13;;;12.20;100.00
5753;BME280;2901;42.140;24.760;2023-03-11T01:35:26;97484.56;;;12.19;100.00
5753;BME280;2901;42.140;24.760;2023-03-11T01:37:51;97486.44;;;12.15;100.00
5753;BME280;2901;42.140;24.760;2023-03-11T01:43:03;97497.28;;;12.25;100.00
5753;BME280;2901;42.140;24.760;2023-03-11T01:46:01;97499.78;;;12.26;100.00
5753;BME280;2901;42.140;24.760;2023-03-11T01:48:27;97478.63;;;12.17;100.00
5753;BME280;2901;42.140;24.760;2023-03-11T01:50:52;97491.16;;;12.26;100.00
5753;BME280;2901;42.140;24.760;2023-03-11T01:53:18;97475.59;;;12.26;100.00
5753;BME280;2901;42.140;24.760;2023-03-11T01:55:44;97495.13;;;12.34;100.00
5753;BME280;2901;42.140;24.760;2023-03-11T01:58:15;97471.34;;;12.25;100.00
5753;BME280;2901;42.140;24.760;2023-03-11T02:00:42;97467.53;;;12.13;100.00
5753;BME280;2901;42.140;24.760;2023-03-11T02:03:17;97469.84;;;12.19;100.00
5753;BME280;2901;42.140;24.760;2023-03-11T02:05:46;97469.56;;;12.25;100.00
5753;BME280;2901;42.140;24.760;2023-03-11T02:08:11;97436.06;;;12.21;100.00
5753;BME280;2901;42.140;24.760;2023-03-11T02:10:40;97431.34;;;12.29;100.00
5753;BME280;2901;42.140;24.760;2023-03-11T02:13:06;97429.31;;;12.35;100.00
5753;BME280;2901;42.140;24.760;2023-03-11T02:15:31;97438.84;;;12.35;100.00
5753;BME280;2901;42.140;24.760;2023-03-11T02:17:58;97455.47;;;12.49;100.00
5753;BME280;2901;42.140;24.760;2023-03-11T02:23:12;97477.84;;;12.52;100.00
5753;BME280;2901;42.140;24.760;2023-03-11T02:25:47;97508.50;;;12.44;100.00
5753;BME280;2901;42.140;24.760;2023-03-11T02:28:15;97523.06;;;12.09;100.00
5753;BME280;2901;42.140;24.760;2023-03-11T02:30:43;97538.00;;;11.84;100.00
5753;BME280;2901;42.140;24.760;2023-03-11T02:33:10;97546.38;;;11.70;100.00
5753;BME280;2901;42.140;24.760;2023-03-11T02:35:37;97539.34;;;11.52;100.00
5753;BME280;2901;42.140;24.760;2023-03-11T02:38:02;97537.06;;;11.44;100.00
5753;BME280;2901;42.140;24.760;2023-03-11T02:40:39;97553.94;;;11.33;100.00
5753;BME280;2901;42.140;24.760;2023-03-11T02:43:12;97553.88;;;11.34;100.00
5753;BME280;2901;42.140;24.760;2023-03-11T02:45:39;97547.22;;;11.29;100.00
5753;BME280;2901;42.140;24.760;2023-03-11T02:48:06;97540.38;;;11.26;100.00
5753;BME280;2901;42.140;24.760;2023-03-11T02:50:33;97542.06;;;11.27;100.00
5753;BME280;2901;42.140;24.760;2023-03-11T02:53:02;97539.63;;;11.24;100.00
5753;BME280;2901;42.140;24.760;2023-03-11T02:55:28;97532.56;;;11.28;100.00
5753;BME280;2901;42.140;24.760;2023-03-11T02:57:54;97528.63;;;11.39;100.00
5753;BME280;2901;42.140;24.760;2023-03-11T03:00:19;97509.53;;;11.42;100.00
5753;BME280;2901;42.140;24.760;2023-03-11T03:02:45;97503.38;;;11.44;100.00
5753;BME280;2901;42.140;24.760;2023-03-11T03:05:11;97489.16;;;11.53;100.00
5753;BME280;2901;42.140;24.760;2023-03-11T03:07:37;97468.25;;;11.58;100.00
5753;BME280;2901;42.140;24.760;2023-03-11T03:10:04;97464.69;;;11.60;100.00
5753;BME280;2901;42.140;24.760;2023-03-11T03:12:30;97436.13;;;11.62;100.00
5753;BME280;2901;42.140;24.760;2023-03-11T03:14:56;97434.38;;;11.62;100.00
5753;BME280;2901;42.140;24.760;2023-03-11T03:17:22;97434.41;;;11.61;100.00
5753;BME280;2901;42.140;24.760;2023-03-11T03:19:48;97429.88;;;11.66;100.00
5753;BME280;2901;42.140;24.760;2023-03-11T03:22:13;97430.78;;;11.65;100.00
5753;BME280;2901;42.140;24.760;2023-03-11T03:24:38;97420.19;;;11.69;100.00
5753;BME280;2901;42.140;24.760;2023-03-11T03:27:04;97433.63;;;11.79;100.00
5753;BME280;2901;42.140;24.760;2023-03-11T03:29:29;97432.53;;;11.84;100.00
5753;BME280;2901;42.140;24.760;2023-03-11T03:31:55;97427.25;;;11.86;100.00
5753;BME280;2901;42.140;24.760;2023-03-11T03:34:20;97425.75;;;11.82;100.00
5753;BME280;2901;42.140;24.760;2023-03-11T03:36:46;97421.47;;;11.81;100.00
5753;BME280;2901;42.140;24.760;2023-03-11T03:39:11;97428.34;;;11.82;100.00
5753;BME280;2901;42.140;24.760;2023-03-11T03:41:36;97444.31;;;11.91;100.00
5753;BME280;2901;42.140;24.760;2023-03-11T03:44:03;97425.66;;;11.83;100.00
5753;BME280;2901;42.140;24.760;2023-03-11T03:46:28;97426.31;;;11.88;100.00
5753;BME280;2901;42.140;24.760;2023-03-11T03:48:54;97429.59;;;11.92;100.00
5753;BME280;2901;42.140;24.760;2023-03-11T03:51:19;97430.19;;;11.99;100.00
5753;BME280;2901;42.140;24.760;2023-03-11T03:53:44;97439.56;;;12.01;100.00
5753;BME280;2901;42.140;24.760;2023-03-11T03:56:15;97441.78;;;12.09;100.00
5753;BME280;2901;42.140;24.760;2023-03-11T03:58:41;97438.25;;;12.11;100.00
5753;BME280;2901;42.140;24.760;2023-03-11T04:01:07;97464.50;;;12.22;100.00
5753;BME280;2901;42.140;24.760;2023-03-11T04:03:33;97477.19;;;12.28;100.00
5753;BME280;2901;42.140;24.760;2023-03-11T04:06:13;97483.53;;;12.23;100.00
5753;BME280;2901;42.140;24.760;2023-03-11T04:08:39;97509.19;;;12.29;100.00
5753;BME280;2901;42.140;24.760;2023-03-11T04:11:04;97506.41;;;12.33;100.00
5753;BME280;2901;42.140;24.760;2023-03-11T04:13:30;97522.88;;;12.32;100.00
5753;BME280;2901;42.140;24.760;2023-03-11T04:15:55;97523.00;;;12.29;100.00
5753;BME280;2901;42.140;24.760;2023-03-11T04:18:21;97523.72;;;12.33;100.00
5753;BME280;2901;42.140;24.760;2023-03-11T04:20:47;97527.75;;;12.20;100.00
5753;BME280;2901;42.140;24.760;2023-03-11T04:23:12;97535.34;;;12.24;100.00
5753;BME280;2901;42.140;24.760;2023-03-11T04:25:38;97533.81;;;12.20;100.00
5753;BME280;2901;42.140;24.760;2023-03-11T04:28:03;97543.75;;;12.11;100.00
5753;BME280;2901;42.140;24.760;2023-03-11T04:30:29;97547.25;;;12.10;100.00
5753;BME280;2901;42.140;24.760;2023-03-11T04:32:54;97556.78;;;12.09;100.00
5753;BME280;2901;42.140;24.760;2023-03-11T04:35:19;97559.13;;;11.95;100.00
5753;BME280;2901;42.140;24.760;2023-03-11T04:37:45;97573.53;;;11.82;100.00
5753;BME280;2901;42.140;24.760;2023-03-11T04:40:11;97573.22;;;11.68;100.00
5753;BME280;2901;42.140;24.760;2023-03-11T04:42:36;97563.63;;;11.70;100.00
5753;BME280;2901;42.140;24.760;2023-03-11T04:45:04;97564.16;;;11.58;100.00
5753;BME280;2901;42.140;24.760;2023-03-11T04:47:29;97567.16;;;11.69;100.00
5753;BME280;2901;42.140;24.760;2023-03-11T04:49:54;97557.59;;;11.69;100.00
5753;BME280;2901;42.140;24.760;2023-03-11T04:52:20;97571.25;;;11.74;100.00
5753;BME280;2901;42.140;24.760;2023-03-11T04:54:46;97581.53;;;11.76;100.00
5753;BME280;2901;42.140;24.760;2023-03-11T04:57:11;97571.41;;;11.70;100.00
5753;BME280;2901;42.140;24.760;2023-03-11T04:59:37;97568.66;;;11.74;100.00
5753;BME280;2901;42.140;24.760;2023-03-11T05:02:02;97550.56;;;11.73;100.00
5753;BME280;2901;42.140;24.760;2023-03-11T05:04:27;97560.50;;;11.83;100.00
5753;BME280;2901;42.140;24.760;2023-03-11T05:06:53;97553.81;;;11.78;100.00
5753;BME280;2901;42.140;24.760;2023-03-11T05:09:18;97564.66;;;11.87;100.00
5753;BME280;2901;42.140;24.760;2023-03-11T05:11:44;97568.59;;;11.96;100.00
5753;BME280;2901;42.140;24.760;2023-03-11T05:14:09;97584.00;;;11.99;100.00
5753;BME280;2901;42.140;24.760;2023-03-11T05:16:34;97583.97;;;12.01;100.00
5753;BME280;2901;42.140;24.760;2023-03-11T05:19:00;97578.78;;;12.01;100.00
5753;BME280;2901;42.140;24.760;2023-03-11T05:21:25;97571.00;;;12.01;100.00
5753;BME280;2901;42.140;24.760;2023-03-11T05:23:50;97570.00;;;12.03;100.00
5753;BME280;2901;42.140;24.760;2023-03-11T05:26:16;97569.69;;;12.11;100.00
5753;BME280;2901;42.140;24.760;2023-03-11T05:28:41;97567.44;;;12.22;100.00
5753;BME280;2901;42.140;24.760;2023-03-11T05:31:08;97577.59;;;12.28;100.00
5753;BME280;2901;42.140;24.760;2023-03-11T05:33:34;97567.91;;;12.31;100.00
5753;BME280;2901;42.140;24.760;2023-03-11T05:36:07;97558.91;;;12.38;100.00
5753;BME280;2901;42.140;24.760;2023-03-11T05:38:34;97578.50;;;12.45;100.00
5753;BME280;2901;42.140;24.760;2023-03-11T05:41:00;97563.59;;;12.51;100.00
5753;BME280;2901;42.140;24.760;2023-03-11T05:43:25;97571.09;;;12.57;100.00
5753;BME280;2901;42.140;24.760;2023-03-11T05:45:50;97561.19;;;12.65;100.00
5753;BME280;2901;42.140;24.760;2023-03-11T05:48:16;97566.88;;;12.73;100.00
5753;BME280;2901;42.140;24.760;2023-03-11T05:50:41;97553.16;;;12.88;100.00
5753;BME280;2901;42.140;24.760;2023-03-11T05:53:06;97551.22;;;12.93;100.00
5753;BME280;2901;42.140;24.760;2023-03-11T05:55:32;97560.03;;;13.08;100.00
5753;BME280;2901;42.140;24.760;2023-03-11T05:57:57;97558.78;;;13.16;100.00
5753;BME280;2901;42.140;24.760;2023-03-11T06:00:22;97554.91;;;13.25;100.00
5753;BME280;2901;42.140;24.760;2023-03-11T06:02:48;97549.19;;;13.35;100.00
5753;BME280;2901;42.140;24.760;2023-03-11T06:05:13;97536.13;;;13.37;100.00
5753;BME280;2901;42.140;24.760;2023-03-11T06:07:39;97542.25;;;13.53;100.00
5753;BME280;2901;42.140;24.760;2023-03-11T06:10:05;97552.25;;;13.61;100.00
5753;BME280;2901;42.140;24.760;2023-03-11T06:12:33;97546.00;;;13.65;100.00
5753;BME280;2901;42.140;24.760;2023-03-11T06:14:59;97535.81;;;13.77;100.00
5753;BME280;2901;42.140;24.760;2023-03-11T06:17:24;97531.28;;;13.81;100.00
5753;BME280;2901;42.140;24.760;2023-03-11T06:19:50;97531.66;;;13.90;100.00
5753;BME280;2901;42.140;24.760;2023-03-11T06:22:15;97525.97;;;13.99;100.00
5753;BME280;2901;42.140;24.760;2023-03-11T06:24:40;97529.78;;;14.10;100.00
5753;BME280;2901;42.140;24.760;2023-03-11T06:27:06;97524.03;;;14.20;99.74
5753;BME280;2901;42.140;24.760;2023-03-11T06:29:33;97526.13;;;14.29;98.98
5753;BME280;2901;42.140;24.760;2023-03-11T06:31:58;97518.13;;;14.17;98.62
5753;BME280;2901;42.140;24.760;2023-03-11T06:34:24;97527.56;;;14.19;99.44
5753;BME280;2901;42.140;24.760;2023-03-11T06:36:49;97518.75;;;14.22;99.29
5753;BME280;2901;42.140;24.760;2023-03-11T06:39:15;97521.59;;;14.33;99.22
5753;BME280;2901;42.140;24.760;2023-03-11T06:41:41;97529.41;;;14.33;99.19
5753;BME280;2901;42.140;24.760;2023-03-11T06:44:08;97526.81;;;14.33;99.05
5753;BME280;2901;42.140;24.760;2023-03-11T06:46:34;97518.31;;;14.29;98.44
5753;BME280;2901;42.140;24.760;2023-03-11T06:49:00;97537.78;;;14.39;98.05
5753;BME280;2901;42.140;24.760;2023-03-11T06:51:25;97533.34;;;14.41;97.24
5753;BME280;2901;42.140;24.760;2023-03-11T06:53:51;97528.88;;;14.43;95.68
5753;BME280;2901;42.140;24.760;2023-03-11T06:56:18;97516.47;;;14.48;94.78
5753;BME280;2901;42.140;24.760;2023-03-11T06:58:44;97517.66;;;14.59;93.39
5753;BME280;2901;42.140;24.760;2023-03-11T07:03:39;97515.56;;;14.65;92.24
5753;BME280;2901;42.140;24.760;2023-03-11T07:06:05;97511.69;;;14.72;91.12
5753;BME280;2901;42.140;24.760;2023-03-11T07:08:31;97516.81;;;14.74;90.82
5753;BME280;2901;42.140;24.760;2023-03-11T07:11:03;97513.31;;;14.75;90.97
5753;BME280;2901;42.140;24.760;2023-03-11T07:13:28;97513.03;;;14.79;90.50
5753;BME280;2901;42.140;24.760;2023-03-11T07:16:24;97518.56;;;14.89;90.78
5753;BME280;2901;42.140;24.760;2023-03-11T07:18:51;97513.97;;;14.94;90.94
5753;BME280;2901;42.140;24.760;2023-03-11T07:21:19;97519.56;;;15.02;90.74
5753;BME280;2901;42.140;24.760;2023-03-11T07:23:45;97491.84;;;15.01;89.37
5753;BME280;2901;42.140;24.760;2023-03-11T07:26:12;97519.03;;;15.27;87.93
5753;BME280;2901;42.140;24.760;2023-03-11T07:28:38;97516.22;;;15.45;86.07
5753;BME280;2901;42.140;24.760;2023-03-11T07:31:24;97521.31;;;15.63;85.44
5753;BME280;2901;42.140;24.760;2023-03-11T07:33:51;97510.34;;;15.72;85.27
5753;BME280;2901;42.140;24.760;2023-03-11T07:36:22;97517.09;;;15.90;84.27
5753;BME280;2901;42.140;24.760;2023-03-11T07:38:48;97512.16;;;15.85;83.86
5753;BME280;2901;42.140;24.760;2023-03-11T07:41:18;97498.06;;;15.74;83.78
5753;BME280;2901;42.140;24.760;2023-03-11T07:43:43;97513.53;;;15.91;83.99
5753;BME280;2901;42.140;24.760;2023-03-11T07:46:12;97515.56;;;15.72;83.77
5753;BME280;2901;42.140;24.760;2023-03-11T07:48:39;97521.69;;;15.56;85.78
5753;BME280;2901;42.140;24.760;2023-03-11T07:51:10;97513.09;;;15.54;86.04
5753;BME280;2901;42.140;24.760;2023-03-11T07:53:35;97518.31;;;15.54;86.27
5753;BME280;2901;42.140;24.760;2023-03-11T07:56:02;97518.31;;;15.54;85.72
5753;BME280;2901;42.140;24.760;2023-03-11T07:58:28;97513.19;;;15.53;85.77
5753;BME280;2901;42.140;24.760;2023-03-11T08:00:53;97523.19;;;15.61;86.17
5753;BME280;2901;42.140;24.760;2023-03-11T08:03:24;97494.56;;;15.59;86.14
5753;BME280;2901;42.140;24.760;2023-03-11T08:05:49;97512.69;;;15.76;85.99
5753;BME280;2901;42.140;24.760;2023-03-11T08:08:15;97502.56;;;15.86;83.68
5753;BME280;2901;42.140;24.760;2023-03-11T08:10:41;97491.19;;;16.01;82.50
5753;BME280;2901;42.140;24.760;2023-03-11T08:13:06;97495.31;;;16.19;80.92
5753;BME280;2901;42.140;24.760;2023-03-11T08:15:32;97495.13;;;16.36;77.79
5753;BME280;2901;42.140;24.760;2023-03-11T08:17:57;97488.47;;;16.45;76.58
5753;BME280;2901;42.140;24.760;2023-03-11T08:20:22;97487.00;;;16.55;77.69
5753;BME280;2901;42.140;24.760;2023-03-11T08:22:48;97483.53;;;16.69;76.05
5753;BME280;2901;42.140;24.760;2023-03-11T08:25:13;97488.44;;;16.73;75.79
5753;BME280;2901;42.140;24.760;2023-03-11T08:27:39;97483.53;;;16.69;75.83
5753;BME280;2901;42.140;24.760;2023-03-11T08:30:06;97480.13;;;16.81;76.32
5753;BME280;2901;42.140;24.760;2023-03-11T08:32:32;97487.56;;;16.87;75.67
5753;BME280;2901;42.140;24.760;2023-03-11T08:34:58;97485.72;;;16.89;75.32
5753;BME280;2901;42.140;24.760;2023-03-11T08:37:23;97491.31;;;16.83;75.88
5753;BME280;2901;42.140;24.760;2023-03-11T08:39:49;97495.38;;;17.01;74.92
5753;BME280;2901;42.140;24.760;2023-03-11T08:42:15;97486.41;;;17.05;75.74
5753;BME280;2901;42.140;24.760;2023-03-11T08:44:41;97492.19;;;16.96;75.54
5753;BME280;2901;42.140;24.760;2023-03-11T08:47:06;97493.13;;;17.09;75.13
5753;BME280;2901;42.140;24.760;2023-03-11T08:49:32;97486.28;;;17.06;74.38
5753;BME280;2901;42.140;24.760;2023-03-11T08:51:57;97491.50;;;17.06;72.47
5753;BME280;2901;42.140;24.760;2023-03-11T08:54:22;97480.16;;;16.93;72.59
5753;BME280;2901;42.140;24.760;2023-03-11T08:56:48;97489.41;;;16.99;72.75
5753;BME280;2901;42.140;24.760;2023-03-11T08:59:13;97484.31;;;17.10;71.88
5753;BME280;2901;42.140;24.760;2023-03-11T09:01:39;97475.59;;;16.97;72.69
5753;BME280;2901;42.140;24.760;2023-03-11T09:04:04;97482.09;;;17.04;72.27
5753;BME280;2901;42.140;24.760;2023-03-11T09:06:30;97476.88;;;17.04;72.52
5753;BME280;2901;42.140;24.760;2023-03-11T09:08:55;97470.09;;;17.14;71.94
5753;BME280;2901;42.140;24.760;2023-03-11T09:11:21;97464.25;;;17.23;71.40
5753;BME280;2901;42.140;24.760;2023-03-11T09:13:47;97459.03;;;17.23;71.07
5753;BME280;2901;42.140;24.760;2023-03-11T09:16:18;97454.66;;;17.36;71.17
5753;BME280;2901;42.140;24.760;2023-03-11T09:18:44;97459.41;;;17.44;70.47
5753;BME280;2901;42.140;24.760;2023-03-11T09:21:10;97459.91;;;17.36;69.36
5753;BME280;2901;42.140;24.760;2023-03-11T09:23:36;97446.63;;;17.39;69.72
5753;BME280;2901;42.140;24.760;2023-03-11T09:26:01;97448.66;;;17.48;69.93
5753;BME280;2901;42.140;24.760;2023-03-11T09:28:27;97432.56;;;17.67;69.43
5753;BME280;2901;42.140;24.760;2023-03-11T09:30:52;97429.31;;;17.76;68.14
5753;BME280;2901;42.140;24.760;2023-03-11T09:33:18;97418.63;;;17.79;67.55
5753;BME280;2901;42.140;24.760;2023-03-11T09:35:43;97435.09;;;17.81;65.98
5753;BME280;2901;42.140;24.760;2023-03-11T09:38:09;97426.06;;;17.60;67.08
5753;BME280;2901;42.140;24.760;2023-03-11T09:46:23;97418.59;;;17.54;68.02
5753;BME280;2901;42.140;24.760;2023-03-11T09:51:29;97414.66;;;17.86;67.01
5753;BME280;2901;42.140;24.760;2023-03-11T09:54:02;97414.91;;;18.20;66.20
5753;BME280;2901;42.140;24.760;2023-03-11T09:56:28;97413.94;;;18.33;65.25
5753;BME280;2901;42.140;24.760;2023-03-11T09:58:59;97417.16;;;18.49;62.76
5753;BME280;2901;42.140;24.760;2023-03-11T10:01:29;97402.47;;;18.59;61.53
5753;BME280;2901;42.140;24.760;2023-03-11T10:06:34;97406.75;;;18.48;60.28
5753;BME280;2901;42.140;24.760;2023-03-11T10:12:05;97399.59;;;18.26;60.23
5753;BME280;2901;42.140;24.760;2023-03-11T10:17:11;97437.09;;;18.39;58.10
5753;BME280;2901;42.140;24.760;2023-03-11T10:23:05;97421.78;;;18.46;58.19
5753;BME280;2901;42.140;24.760;2023-03-11T10:28:12;97424.00;;;18.39;57.89
5753;BME280;2901;42.140;24.760;2023-03-11T10:30:44;97416.44;;;18.35;58.03
5753;BME280;2901;42.140;24.760;2023-03-11T10:35:50;97409.19;;;18.63;57.79
5753;BME280;2901;42.140;24.760;2023-03-11T10:38:34;97397.28;;;18.71;57.29
5753;BME280;2901;42.140;24.760;2023-03-11T10:41:10;97413.88;;;18.58;56.02
5753;BME280;2901;42.140;24.760;2023-03-11T10:43:40;97400.41;;;18.52;56.38
5753;BME280;2901;42.140;24.760;2023-03-11T10:46:18;97393.47;;;18.51;56.85
5753;BME280;2901;42.140;24.760;2023-03-11T10:48:45;97398.06;;;18.60;55.72
5753;BME280;2901;42.140;24.760;2023-03-11T10:51:13;97396.69;;;18.67;54.93
5753;BME280;2901;42.140;24.760;2023-03-11T10:53:53;97385.63;;;18.75;55.04
5753;BME280;2901;42.140;24.760;2023-03-11T10:56:39;97389.91;;;18.99;54.11
5753;BME280;2901;42.140;24.760;2023-03-11T11:02:33;97392.22;;;19.15;53.20
5753;BME280;2901;42.140;24.760;2023-03-11T11:05:20;97382.00;;;19.34;53.19
5753;BME280;2901;42.140;24.760;2023-03-11T11:10:36;97366.78;;;19.39;51.87
5753;BME280;2901;42.140;24.760;2023-03-11T11:13:16;97364.19;;;19.61;50.21
5753;BME280;2901;42.140;24.760;2023-03-11T11:16:00;97367.91;;;19.92;48.28
5753;BME280;2901;42.140;24.760;2023-03-11T11:18:41;97357.28;;;20.05;49.25
5753;BME280;2901;42.140;24.760;2023-03-11T11:21:14;97357.78;;;19.88;49.19
5753;BME280;2901;42.140;24.760;2023-03-11T11:23:46;97372.81;;;19.75;50.03
5753;BME280;2901;42.140;24.760;2023-03-11T11:26:23;97366.59;;;19.64;49.76
5753;BME280;2901;42.140;24.760;2023-03-11T11:31:45;97351.25;;;19.36;49.29
5753;BME280;2901;42.140;24.760;2023-03-11T11:34:32;97345.09;;;19.13;48.34
5753;BME280;2901;42.140;24.760;2023-03-11T11:37:00;97347.34;;;18.96;48.53
5753;BME280;2901;42.140;24.760;2023-03-11T11:39:34;97354.47;;;18.94;47.93
5753;BME280;2901;42.140;24.760;2023-03-11T11:42:01;97350.66;;;18.98;47.73
5753;BME280;2901;42.140;24.760;2023-03-11T11:44:32;97332.53;;;18.95;47.98
5753;BME280;2901;42.140;24.760;2023-03-11T11:47:23;97333.03;;;19.00;48.10
5753;BME280;2901;42.140;24.760;2023-03-11T11:50:00;97348.47;;;19.15;47.80
5753;BME280;2901;42.140;24.760;2023-03-11T11:52:30;97346.31;;;19.09;44.26
5753;BME280;2901;42.140;24.760;2023-03-11T11:55:26;97335.59;;;19.24;40.30
5753;BME280;2901;42.140;24.760;2023-03-11T11:57:53;97331.03;;;19.49;39.31
5753;BME280;2901;42.140;24.760;2023-03-11T12:06:00;97323.88;;;19.62;38.89
5753;BME280;2901;42.140;24.760;2023-03-11T12:08:45;97306.31;;;19.63;39.57
5753;BME280;2901;42.140;24.760;2023-03-11T12:11:22;97308.22;;;19.83;39.65
5753;BME280;2901;42.140;24.760;2023-03-11T12:14:00;97305.72;;;19.82;39.58
5753;BME280;2901;42.140;24.760;2023-03-11T12:19:16;97302.47;;;20.00;39.41
5753;BME280;2901;42.140;24.760;2023-03-11T12:27:18;97293.59;;;20.35;38.55
5753;BME280;2901;42.140;24.760;2023-03-11T12:29:51;97315.69;;;20.21;37.57
5753;BME280;2901;42.140;24.760;2023-03-11T12:32:40;97301.47;;;20.24;38.29
5753;BME280;2901;42.140;24.760;2023-03-11T12:35:25;97298.38;;;20.18;38.31
5753;BME280;2901;42.140;24.760;2023-03-11T12:38:13;97298.13;;;20.22;38.82
5753;BME280;2901;42.140;24.760;2023-03-11T12:46:06;97293.25;;;20.17;38.99
5753;BME280;2901;42.140;24.760;2023-03-11T12:48:47;97317.63;;;20.08;38.45
5753;BME280;2901;42.140;24.760;2023-03-11T12:53:50;97314.19;;;19.63;39.33
5753;BME280;2901;42.140;24.760;2023-03-11T12:56:39;97327.06;;;19.66;40.60
5753;BME280;2901;42.140;24.760;2023-03-11T13:01:56;97319.59;;;19.27;44.42
5753;BME280;2901;42.140;24.760;2023-03-11T13:04:24;97313.63;;;19.13;42.15
5753;BME280;2901;42.140;24.760;2023-03-11T13:07:11;97323.06;;;19.27;43.81
5753;BME280;2901;42.140;24.760;2023-03-11T13:09:41;97321.78;;;19.33;45.42
5753;BME280;2901;42.140;24.760;2023-03-11T13:33:53;97378.88;;;19.18;47.45
5753;BME280;2901;42.140;24.760;2023-03-11T13:36:48;97371.84;;;19.18;47.36
5753;BME280;2901;42.140;24.760;2023-03-11T13:39:50;97362.44;;;19.27;46.61
5753;BME280;2901;42.140;24.760;2023-03-11T13:42:39;97353.34;;;19.09;47.23
5753;BME280;2901;42.140;24.760;2023-03-11T13:45:31;97375.41;;;19.06;46.79
5753;BME280;2901;42.140;24.760;2023-03-11T13:48:03;97376.94;;;19.09;47.20
5753;BME280;2901;42.140;24.760;2023-03-11T13:50:36;97365.28;;;19.24;46.90
5753;BME280;2901;42.140;24.760;2023-03-11T13:53:09;97362.44;;;19.27;45.94
5753;BME280;2901;42.140;24.760;2023-03-11T13:55:48;97372.44;;;19.22;44.85
5753;BME280;2901;42.140;24.760;2023-03-11T13:58:21;97372.69;;;19.30;44.71
5753;BME280;2901;42.140;24.760;2023-03-11T14:00:59;97378.00;;;19.41;43.88
5753;BME280;2901;42.140;24.760;2023-03-11T14:03:28;97377.72;;;19.33;44.67
5753;BME280;2901;42.140;24.760;2023-03-11T14:06:07;97375.38;;;19.41;45.21
5753;BME280;2901;42.140;24.760;2023-03-11T14:08:37;97372.59;;;19.32;46.15
5753;BME280;2901;42.140;24.760;2023-03-11T14:11:26;97380.81;;;19.27;46.78
5753;BME280;2901;42.140;24.760;2023-03-11T14:13:53;97373.28;;;19.23;47.25
5753;BME280;2901;42.140;24.760;2023-03-11T14:16:27;97379.16;;;19.26;47.74
5753;BME280;2901;42.140;24.760;2023-03-11T14:19:11;97365.78;;;19.29;47.54
5753;BME280;2901;42.140;24.760;2023-03-11T14:21:47;97370.97;;;19.42;47.08
5753;BME280;2901;42.140;24.760;2023-03-11T14:24:20;97372.53;;;19.44;47.60
5753;BME280;2901;42.140;24.760;2023-03-11T14:26:47;97375.06;;;19.46;47.89
5753;BME280;2901;42.140;24.760;2023-03-11T14:29:18;97373.03;;;19.60;47.61
5753;BME280;2901;42.140;24.760;2023-03-11T14:31:46;97379.94;;;19.73;45.95
5753;BME280;2901;42.140;24.760;2023-03-11T14:34:19;97380.19;;;19.69;45.51
5753;BME280;2901;42.140;24.760;2023-03-11T14:36:50;97379.00;;;19.62;44.94
5753;BME280;2901;42.140;24.760;2023-03-11T14:41:58;97385.56;;;19.46;44.59
5753;BME280;2901;42.140;24.760;2023-03-11T14:44:27;97385.88;;;19.41;44.56